createdAt,value
2024-05-09T00:00:39.489Z,17.05
2024-05-09T00:03:08.263Z,17.25
2024-05-09T00:05:36.658Z,18.42
2024-05-09T00:08:04.055Z,16.58
2024-05-09T00:10:36.350Z,16.08
2024-05-09T00:13:09.013Z,17.60
2024-05-09T00:15:36.817Z,16.58
2024-05-09T00:18:05.444Z,15.70
2024-05-09T00:20:38.841Z,17.15
2024-05-09T00:23:09.279Z,17.00
2024-05-09T00:25:37.829Z,17.10
2024-05-09T00:28:05.201Z,16.83
2024-05-09T00:30:35.367Z,14.90
2024-05-09T00:33:08.277Z,17.30
2024-05-09T00:35:36.557Z,16.55
2024-05-09T00:38:03.762Z,16.42
2024-05-09T00:40:41.755Z,16.95
2024-05-09T00:43:12.092Z,17.40
2024-05-09T00:45:39.671Z,16.98
2024-05-09T00:48:08.677Z,16.35
2024-05-09T00:50:39.937Z,16.83
2024-05-09T00:53:09.838Z,17.02
2024-05-09T00:55:37.856Z,17.13
2024-05-09T00:58:06.078Z,16.05
2024-05-09T01:00:38.979Z,16.20
2024-05-09T01:03:09.707Z,17.95
2024-05-09T01:05:39.677Z,16.45
2024-05-09T01:08:07.523Z,17.67
2024-05-09T01:10:35.892Z,18.27
2024-05-09T01:13:07.262Z,17.17
2024-05-09T01:15:35.681Z,17.05
2024-05-09T01:18:09.760Z,16.98
2024-05-09T01:20:41.924Z,17.40
2024-05-09T01:23:11.878Z,17.70
2024-05-09T01:25:39.156Z,17.23
2024-05-09T01:28:06.463Z,17.88
2024-05-09T01:30:35.933Z,17.40
2024-05-09T01:33:06.481Z,18.70
2024-05-09T01:35:34.985Z,18.05
2024-05-09T01:38:01.862Z,17.83
2024-05-09T01:40:36.647Z,17.65
2024-05-09T01:43:06.683Z,17.52
2024-05-09T01:45:33.558Z,17.42
2024-05-09T01:48:00.736Z,17.83
2024-05-09T01:52:57.440Z,17.10
2024-05-09T01:55:24.192Z,17.55
2024-05-09T01:57:51.028Z,16.45
2024-05-09T02:00:26.254Z,16.67
2024-05-09T02:03:01.582Z,15.60
2024-05-09T02:05:28.643Z,16.77
2024-05-09T02:07:55.450Z,17.42
2024-05-09T02:10:26.556Z,17.45
2024-05-09T02:12:59.040Z,16.70
2024-05-09T02:15:25.881Z,19.27
2024-05-09T02:17:52.699Z,17.60
2024-05-09T02:20:29.967Z,16.90
2024-05-09T02:23:04.142Z,17.00
2024-05-09T02:25:31.717Z,17.90
2024-05-09T02:27:58.474Z,16.58
2024-05-09T02:30:35.093Z,18.20
2024-05-09T02:33:06.495Z,19.10
2024-05-09T02:35:33.657Z,17.98
2024-05-09T02:38:00.738Z,18.48
2024-05-09T02:40:35.717Z,18.55
2024-05-09T02:43:05.378Z,18.58
2024-05-09T02:45:32.353Z,17.25
2024-05-09T02:47:59.308Z,18.42
2024-05-09T02:50:34.153Z,18.02
2024-05-09T02:53:05.703Z,18.55
2024-05-09T02:55:33.005Z,18.05
2024-05-09T02:57:59.927Z,18.45
2024-05-09T03:00:35.007Z,19.58
2024-05-09T03:03:11.816Z,18.48
2024-05-09T03:05:41.123Z,18.35
2024-05-09T03:08:08.247Z,18.58
2024-05-09T03:10:37.422Z,20.23
2024-05-09T03:13:09.988Z,21.63
2024-05-09T03:15:36.964Z,21.20
2024-05-09T03:18:05.546Z,20.52
2024-05-09T03:20:35.164Z,19.67
2024-05-09T03:23:04.075Z,18.38
2024-05-09T03:25:31.049Z,22.05
2024-05-09T03:27:57.804Z,20.25
2024-05-09T03:30:38.022Z,22.13
2024-05-09T03:33:13.595Z,21.35
2024-05-09T03:35:41.419Z,19.40
2024-05-09T03:38:08.297Z,20.33
2024-05-09T03:40:35.207Z,22.02
2024-05-09T03:43:02.011Z,21.08
2024-05-09T03:45:28.704Z,19.58
2024-05-09T03:47:55.611Z,21.60
2024-05-09T03:50:29.896Z,20.40
2024-05-09T03:53:02.003Z,19.95
2024-05-09T03:55:28.985Z,19.60
2024-05-09T03:57:55.672Z,18.98
2024-05-09T04:00:31.025Z,19.05
2024-05-09T04:03:09.707Z,19.92
2024-05-09T04:05:43.036Z,18.00
2024-05-09T04:08:10.989Z,18.48
2024-05-09T04:10:38.113Z,16.90
2024-05-09T04:13:05.077Z,18.70
2024-05-09T04:15:32.135Z,16.83
2024-05-09T04:17:59.335Z,17.80
2024-05-09T04:20:37.215Z,18.85
2024-05-09T04:23:08.145Z,17.85
2024-05-09T04:25:35.790Z,19.25
2024-05-09T04:28:02.901Z,18.88
2024-05-09T04:30:37.322Z,19.17
2024-05-09T04:33:09.215Z,16.85
2024-05-09T04:35:38.287Z,19.10
2024-05-09T04:38:05.745Z,17.15
2024-05-09T04:40:35.792Z,16.48
2024-05-09T04:43:07.704Z,18.17
2024-05-09T04:45:35.289Z,19.05
2024-05-09T04:48:02.683Z,17.48
2024-05-09T04:50:36.284Z,16.65
2024-05-09T04:53:07.179Z,15.35
2024-05-09T04:55:35.627Z,15.90
2024-05-09T04:58:02.309Z,13.88
2024-05-09T05:00:35.828Z,14.38
2024-05-09T05:03:11.010Z,13.63
2024-05-09T05:05:41.284Z,12.95
2024-05-09T05:08:16.758Z,14.43
2024-05-09T05:10:44.839Z,13.07
2024-05-09T05:13:29.761Z,14.30
2024-05-09T05:15:57.788Z,13.95
2024-05-09T05:18:26.209Z,15.38
2024-05-09T05:20:53.762Z,15.68
2024-05-09T05:23:21.873Z,16.42
2024-05-09T05:25:50.252Z,17.55
2024-05-09T05:28:17.413Z,17.55
2024-05-09T05:30:44.582Z,17.70
2024-05-09T05:33:13.671Z,18.30
2024-05-09T05:35:41.605Z,16.65
2024-05-09T05:38:08.916Z,20.20
2024-05-09T05:40:40.544Z,19.48
2024-05-09T05:43:10.441Z,19.35
2024-05-09T05:45:38.033Z,17.52
2024-05-09T05:48:06.792Z,18.60
2024-05-09T05:50:37.184Z,21.05
2024-05-09T05:53:09.735Z,19.00
2024-05-09T05:55:38.897Z,20.25
2024-05-09T05:58:05.788Z,20.70
2024-05-09T06:00:38.773Z,20.60
2024-05-09T06:03:08.838Z,19.90
2024-05-09T06:05:37.319Z,20.00
2024-05-09T06:08:04.874Z,20.67
2024-05-09T06:10:38.050Z,21.17
2024-05-09T06:13:07.715Z,20.80
2024-05-09T06:15:34.606Z,21.55
2024-05-09T06:18:01.838Z,21.38
2024-05-09T06:20:35.580Z,18.73
2024-05-09T06:23:08.356Z,20.77
2024-05-09T06:25:36.270Z,21.90
2024-05-09T06:28:03.494Z,22.52
2024-05-09T06:30:37.845Z,21.30
2024-05-09T06:33:08.852Z,21.40
2024-05-09T06:35:36.645Z,21.30
2024-05-09T06:38:03.747Z,20.17
2024-05-09T06:40:37.203Z,21.20
2024-05-09T06:43:14.748Z,21.75
2024-05-09T06:45:42.571Z,21.10
2024-05-09T06:48:10.308Z,21.33
2024-05-09T06:50:39.072Z,21.90
2024-05-09T06:53:07.662Z,21.98
2024-05-09T06:55:34.786Z,21.85
2024-05-09T06:58:01.588Z,20.65
2024-05-09T07:00:35.712Z,22.65
2024-05-09T07:03:09.580Z,22.00
2024-05-09T07:05:36.772Z,22.00
2024-05-09T07:08:04.577Z,21.92
2024-05-09T07:10:35.148Z,21.27
2024-05-09T07:13:02.866Z,21.05
2024-05-09T07:15:29.629Z,21.00
2024-05-09T07:17:56.679Z,21.60
2024-05-09T07:20:32.143Z,22.33
2024-05-09T07:23:03.026Z,22.70
2024-05-09T07:25:30.182Z,21.45
2024-05-09T07:27:57.141Z,21.27
2024-05-09T07:30:32.558Z,19.25
2024-05-09T07:33:01.669Z,20.17
2024-05-09T07:35:29.354Z,21.73
2024-05-09T07:37:56.405Z,20.70
2024-05-09T07:42:52.819Z,22.05
2024-05-09T07:45:39.687Z,20.85
2024-05-09T07:53:36.810Z,22.02
2024-05-09T07:55:56.192Z,19.92
2024-05-09T07:58:27.599Z,19.75
2024-05-09T08:00:54.813Z,20.13
2024-05-09T08:03:22.154Z,20.58
2024-05-09T08:05:49.052Z,21.05
2024-05-09T08:08:15.965Z,20.55
2024-05-09T08:10:42.749Z,21.35
2024-05-09T08:13:09.667Z,21.48
2024-05-09T08:15:37.932Z,19.65
2024-05-09T08:18:10.947Z,19.10
2024-05-09T08:20:38.805Z,19.45
2024-05-09T08:23:05.936Z,18.45
2024-05-09T08:25:32.754Z,19.25
2024-05-09T08:27:59.531Z,14.95
2024-05-09T08:30:33.398Z,16.08
2024-05-09T08:33:04.859Z,15.43
2024-05-09T08:35:32.472Z,15.10
2024-05-09T08:37:59.535Z,14.45
2024-05-09T08:40:33.692Z,16.83
2024-05-09T08:43:06.167Z,15.02
2024-05-09T08:45:35.127Z,16.10
2024-05-09T08:48:06.276Z,15.18
2024-05-09T08:50:38.780Z,16.05
2024-05-09T08:53:07.639Z,14.02
2024-05-09T08:55:37.413Z,14.27
2024-05-09T08:58:07.652Z,13.32
2024-05-09T09:00:37.445Z,12.30
2024-05-09T09:03:09.112Z,10.43
2024-05-09T09:05:39.553Z,11.10
2024-05-09T09:08:08.717Z,10.77
2024-05-09T09:10:35.942Z,11.05
2024-05-09T09:13:05.111Z,11.88
2024-05-09T09:15:32.651Z,10.35
2024-05-09T09:18:00.949Z,11.13
2024-05-09T09:20:35.644Z,10.63
2024-05-09T09:23:04.212Z,10.07
2024-05-09T09:25:31.245Z,9.63
2024-05-09T09:27:58.823Z,9.57
2024-05-09T09:30:36.295Z,9.55
2024-05-09T09:33:06.257Z,9.20
2024-05-09T09:35:33.982Z,10.05
2024-05-09T09:38:04.684Z,10.88
2024-05-09T09:40:37.524Z,8.73
2024-05-09T09:43:14.294Z,10.15
2024-05-09T09:45:43.783Z,9.65
2024-05-09T09:48:12.375Z,9.07
2024-05-09T09:50:40.292Z,10.38
2024-05-09T09:53:08.018Z,10.93
2024-05-09T09:55:35.732Z,10.27
2024-05-09T09:58:04.806Z,9.57
2024-05-09T10:00:34.307Z,12.50
2024-05-09T10:03:01.950Z,13.07
2024-05-09T10:05:30.143Z,11.20
2024-05-09T10:07:59.229Z,10.70
2024-05-09T10:10:31.757Z,12.68
2024-05-09T10:13:06.698Z,14.13
2024-05-09T10:15:53.492Z,12.80
2024-05-09T10:18:28.410Z,12.93
2024-05-09T10:20:57.770Z,13.23
2024-05-09T10:23:29.208Z,12.23
2024-05-09T10:26:00.013Z,12.57
2024-05-09T10:28:31.722Z,13.35
2024-05-09T10:31:08.837Z,14.45
2024-05-09T10:33:52.898Z,14.85
2024-05-09T10:36:24.980Z,12.55
2024-05-09T10:38:53.409Z,12.93
2024-05-09T10:41:21.413Z,12.57
2024-05-09T10:43:49.014Z,12.25
2024-05-09T10:46:16.380Z,13.27
2024-05-09T10:48:44.533Z,12.57
2024-05-09T10:51:11.970Z,12.68
2024-05-09T10:53:45.747Z,11.85
2024-05-09T10:56:16.027Z,13.02
2024-05-09T10:58:42.965Z,12.48
2024-05-09T11:01:10.899Z,12.35
2024-05-09T11:03:39.115Z,12.38
2024-05-09T11:06:06.925Z,11.80
2024-05-09T11:08:35.174Z,11.43
2024-05-09T11:11:07.178Z,11.63
2024-05-09T11:13:39.269Z,12.30
2024-05-09T11:16:16.464Z,12.73
2024-05-09T11:18:43.898Z,10.98
2024-05-09T11:21:14.110Z,11.93
2024-05-09T11:23:41.466Z,11.65
2024-05-09T11:26:09.236Z,13.07
2024-05-09T11:28:35.973Z,12.82
2024-05-09T11:31:08.462Z,10.55
2024-05-09T11:33:41.408Z,10.55
2024-05-09T11:36:09.587Z,11.95
2024-05-09T11:38:36.969Z,12.35
2024-05-09T11:41:05.081Z,12.95
2024-05-09T11:43:32.499Z,13.98
2024-05-09T11:45:59.971Z,12.88
2024-05-09T11:48:27.141Z,13.80
2024-05-09T11:50:57.097Z,12.57
2024-05-09T11:53:24.157Z,13.20
2024-05-09T11:55:50.900Z,12.25
2024-05-09T11:58:19.230Z,13.63
2024-05-09T12:00:47.019Z,12.48
2024-05-09T12:03:14.274Z,11.82
2024-05-09T12:05:41.415Z,13.27
2024-05-09T12:08:08.368Z,11.77
2024-05-09T12:10:36.560Z,12.50
2024-05-09T12:13:06.016Z,12.30
2024-05-09T12:15:37.035Z,11.25
2024-05-09T12:18:05.439Z,11.68
2024-05-09T12:20:37.627Z,12.40
2024-05-09T12:23:07.444Z,13.43
2024-05-09T12:25:35.089Z,12.15
2024-05-09T12:28:01.997Z,11.95
2024-05-09T12:30:36.228Z,11.70
2024-05-09T12:33:10.792Z,10.82
2024-05-09T12:35:38.557Z,13.18
2024-05-09T12:38:05.294Z,11.98
2024-05-09T12:40:36.730Z,11.80
2024-05-09T12:43:08.756Z,11.32
2024-05-09T12:45:36.819Z,13.10
2024-05-09T12:48:07.024Z,11.10
2024-05-09T12:50:34.778Z,11.93
2024-05-09T12:53:03.077Z,12.70
2024-05-09T12:55:37.193Z,14.25
2024-05-09T12:58:11.638Z,15.95
2024-05-09T13:00:38.955Z,13.98
2024-05-09T13:03:06.265Z,14.50
2024-05-09T13:05:33.302Z,13.68
2024-05-09T13:08:00.924Z,14.57
2024-05-09T13:10:32.163Z,14.25
2024-05-09T13:13:01.974Z,16.42
2024-05-09T13:15:30.737Z,13.95
2024-05-09T13:18:01.576Z,13.95
2024-05-09T13:20:33.556Z,14.95
2024-05-09T13:23:04.162Z,17.75
2024-05-09T13:25:31.065Z,17.23
2024-05-09T13:27:57.955Z,19.38
2024-05-09T13:30:33.628Z,18.42
2024-05-09T13:33:06.477Z,18.98
2024-05-09T13:35:35.522Z,18.60
2024-05-09T13:38:03.946Z,17.40
2024-05-09T13:40:34.559Z,17.83
2024-05-09T13:43:04.825Z,15.32
2024-05-09T13:45:32.142Z,15.25
2024-05-09T13:47:59.219Z,15.05
2024-05-09T13:50:33.963Z,14.45
2024-05-09T13:53:06.019Z,14.73
2024-05-09T13:55:34.004Z,20.75
2024-05-09T13:58:01.357Z,24.60
2024-05-09T14:00:41.674Z,25.25
2024-05-09T14:03:14.314Z,26.80
2024-05-09T14:05:41.637Z,26.77
2024-05-09T14:08:08.845Z,27.00
2024-05-09T14:10:35.924Z,28.17
2024-05-09T14:13:02.871Z,29.80
2024-05-09T14:15:29.705Z,29.08
2024-05-09T14:17:56.562Z,29.02
2024-05-09T14:20:30.456Z,30.25
2024-05-09T14:22:59.866Z,30.05
2024-05-09T14:25:31.939Z,28.27
2024-05-09T14:27:59.147Z,30.10
2024-05-09T14:30:35.901Z,29.33
2024-05-09T14:33:06.050Z,28.48
2024-05-09T14:35:33.740Z,26.58
2024-05-09T14:38:00.620Z,28.98
2024-05-09T14:40:37.206Z,26.38
2024-05-09T14:43:10.450Z,25.98
2024-05-09T14:45:37.491Z,28.90
2024-05-09T14:48:04.949Z,27.73
2024-05-09T14:50:36.857Z,26.50
2024-05-09T14:53:07.382Z,26.20
2024-05-09T14:55:37.461Z,27.67
2024-05-09T14:58:09.757Z,25.05
2024-05-09T15:00:46.781Z,26.48
2024-05-09T15:03:17.947Z,26.45
2024-05-09T15:05:45.382Z,27.05
2024-05-09T15:08:12.322Z,26.73
2024-05-09T15:10:39.334Z,27.77
2024-05-09T15:13:08.212Z,27.33
2024-05-09T15:15:36.970Z,26.75
2024-05-09T15:18:05.150Z,25.33
2024-05-09T15:20:36.066Z,26.58
2024-05-09T15:23:06.234Z,27.05
2024-05-09T15:25:34.137Z,24.17
2024-05-09T15:28:01.113Z,24.30
2024-05-09T15:30:31.417Z,24.83
2024-05-09T15:33:01.229Z,25.25
2024-05-09T15:35:28.359Z,22.40
2024-05-09T15:37:55.617Z,22.40
2024-05-09T15:40:31.655Z,23.95
2024-05-09T15:43:06.297Z,20.27
2024-05-09T15:45:34.467Z,20.60
2024-05-09T15:48:02.267Z,20.50
2024-05-09T15:50:36.774Z,19.90
2024-05-09T15:53:07.879Z,21.95
2024-05-09T15:55:35.675Z,18.73
2024-05-09T15:58:03.595Z,16.75
2024-05-09T16:00:38.435Z,17.27
2024-05-09T16:03:09.470Z,17.77
2024-05-09T16:05:36.813Z,16.33
2024-05-09T16:08:04.618Z,15.43
2024-05-09T16:10:33.317Z,14.18
2024-05-09T16:13:02.284Z,15.02
2024-05-09T16:15:29.723Z,15.43
2024-05-09T16:17:56.881Z,16.98
2024-05-09T16:22:54.517Z,14.35
2024-05-09T16:25:21.485Z,13.32
2024-05-09T16:27:48.581Z,12.75
2024-05-09T16:30:24.175Z,12.02
2024-05-09T16:32:55.959Z,11.30
2024-05-09T16:35:22.821Z,11.48
2024-05-09T16:37:49.725Z,11.23
2024-05-09T16:40:25.310Z,12.30
2024-05-09T16:43:03.642Z,11.05
2024-05-09T16:45:30.661Z,10.48
2024-05-09T16:47:58.057Z,10.48
2024-05-09T16:50:29.529Z,10.27
2024-05-09T16:53:00.396Z,10.93
2024-05-09T16:55:27.421Z,10.25
2024-05-09T16:57:55.098Z,10.40
2024-05-09T17:00:31.506Z,10.35
2024-05-09T17:03:06.977Z,9.82
2024-05-09T17:05:34.771Z,20.38
2024-05-09T17:08:02.087Z,19.05
2024-05-09T17:10:33.073Z,17.70
2024-05-09T17:13:02.585Z,12.77
2024-05-09T17:15:29.758Z,12.95
2024-05-09T17:17:56.871Z,11.82
2024-05-09T17:20:31.364Z,13.15
2024-05-09T17:23:02.523Z,12.00
2024-05-09T17:25:29.582Z,12.25
2024-05-09T17:27:57.013Z,11.32
2024-05-09T17:30:32.001Z,11.57
2024-05-09T17:33:04.166Z,11.90
2024-05-09T17:35:32.096Z,12.05
2024-05-09T17:37:59.848Z,11.52
2024-05-09T17:40:33.110Z,10.88
2024-05-09T17:43:03.599Z,11.52
2024-05-09T17:45:30.911Z,12.27
2024-05-09T17:47:58.403Z,11.80
2024-05-09T17:50:31.694Z,13.77
2024-05-09T17:53:02.677Z,12.75
2024-05-09T17:55:29.678Z,13.32
2024-05-09T17:57:56.819Z,14.88
2024-05-09T18:00:34.313Z,15.18
2024-05-09T18:03:06.406Z,13.98
2024-05-09T18:05:37.748Z,12.48
2024-05-09T18:08:08.606Z,12.95
2024-05-09T18:10:38.655Z,13.10
2024-05-09T18:13:11.265Z,12.98
2024-05-09T18:15:39.186Z,14.30
2024-05-09T18:18:07.093Z,13.70
2024-05-09T18:20:41.992Z,12.07
2024-05-09T18:23:17.183Z,12.10
2024-05-09T18:25:45.591Z,12.20
2024-05-09T18:28:12.599Z,11.75
2024-05-09T18:30:40.403Z,13.05
2024-05-09T18:33:09.906Z,13.68
2024-05-09T18:35:37.160Z,13.07
2024-05-09T18:38:05.297Z,13.15
2024-05-09T18:40:36.124Z,13.82
2024-05-09T18:43:07.114Z,14.20
2024-05-09T18:45:36.111Z,14.95
2024-05-09T18:48:05.040Z,14.63
2024-05-09T18:50:36.504Z,15.90
2024-05-09T18:53:06.545Z,18.42
2024-05-09T18:55:33.850Z,16.98
2024-05-09T18:58:01.285Z,15.90
2024-05-09T19:00:34.610Z,17.00
2024-05-09T19:03:09.328Z,16.80
2024-05-09T19:05:39.027Z,17.30
2024-05-09T19:08:07.452Z,16.58
2024-05-09T19:10:35.758Z,17.50
2024-05-09T19:13:08.193Z,17.20
2024-05-09T19:15:39.335Z,17.77
2024-05-09T19:18:07.254Z,17.27
2024-05-09T19:20:35.957Z,18.23
2024-05-09T19:23:04.241Z,17.80
2024-05-09T19:25:31.309Z,18.65
2024-05-09T19:27:58.294Z,18.40
2024-05-09T19:30:34.386Z,18.48
2024-05-09T19:33:06.973Z,17.50
2024-05-09T19:35:33.930Z,18.85
2024-05-09T19:38:00.999Z,21.10
2024-05-09T19:40:32.000Z,18.70
2024-05-09T19:43:02.354Z,19.73
2024-05-09T19:45:29.831Z,18.92
2024-05-09T19:47:57.279Z,19.38
2024-05-09T19:50:32.415Z,19.40
2024-05-09T19:53:07.364Z,19.52
2024-05-09T19:55:34.719Z,18.60
2024-05-09T19:58:05.192Z,19.88
2024-05-09T20:00:39.376Z,19.90
2024-05-09T20:03:08.874Z,19.42
2024-05-09T20:05:36.992Z,20.67
2024-05-09T20:08:04.612Z,20.10
2024-05-09T20:10:33.759Z,19.67
2024-05-09T20:13:02.728Z,19.83
2024-05-09T20:15:29.924Z,19.63
2024-05-09T20:17:59.721Z,18.52
2024-05-09T20:20:35.023Z,18.88
2024-05-09T20:23:08.691Z,21.48
2024-05-09T20:25:35.544Z,20.08
2024-05-09T20:28:02.555Z,19.02
2024-05-09T20:30:32.813Z,19.75
2024-05-09T20:33:02.948Z,20.63
2024-05-09T20:35:32.745Z,20.48
2024-05-09T20:38:01.150Z,19.92
2024-05-09T20:40:32.942Z,20.58
2024-05-09T20:43:03.648Z,19.83
2024-05-09T20:45:30.500Z,20.42
2024-05-09T20:47:57.854Z,21.27
2024-05-09T20:50:35.468Z,20.48
2024-05-09T20:53:14.286Z,20.05
2024-05-09T20:55:42.478Z,20.13
2024-05-09T20:58:10.101Z,21.10
2024-05-09T21:00:40.797Z,21.02
2024-05-09T21:03:11.461Z,20.75
2024-05-09T21:05:39.202Z,21.40
2024-05-09T21:08:06.804Z,20.73
2024-05-09T21:10:35.139Z,20.50
2024-05-09T21:13:03.358Z,20.67
2024-05-09T21:15:31.188Z,21.58
2024-05-09T21:17:58.497Z,20.35
2024-05-09T21:20:31.082Z,20.73
2024-05-09T21:22:59.300Z,20.05
2024-05-09T21:25:26.140Z,21.52
2024-05-09T21:27:53.169Z,21.95
2024-05-09T21:30:31.551Z,22.23
2024-05-09T21:33:07.981Z,20.75
2024-05-09T21:35:34.960Z,23.15
2024-05-09T21:38:01.657Z,22.13
2024-05-09T21:40:34.215Z,20.80
2024-05-09T21:43:03.294Z,22.65
2024-05-09T21:45:30.211Z,22.02
2024-05-09T21:47:57.007Z,24.25
2024-05-09T21:50:31.790Z,24.05
2024-05-09T21:53:05.678Z,22.70
2024-05-09T21:55:32.398Z,22.33
2024-05-09T21:57:59.174Z,23.25
2024-05-09T22:00:34.249Z,23.55
2024-05-09T22:03:04.534Z,23.75
2024-05-09T22:05:31.503Z,23.38
2024-05-09T22:07:58.423Z,23.10
2024-05-09T22:10:31.148Z,23.75
2024-05-09T22:13:01.777Z,22.75
2024-05-09T22:15:28.837Z,21.88
2024-05-09T22:17:56.846Z,22.65
2024-05-09T22:20:32.929Z,22.90
2024-05-09T22:23:04.302Z,23.60
2024-05-09T22:25:32.165Z,22.27
2024-05-09T22:28:00.206Z,22.55
2024-05-09T22:30:35.525Z,22.27
2024-05-09T22:33:07.292Z,22.13
2024-05-09T22:35:34.391Z,22.98
2024-05-09T22:38:02.335Z,21.60
2024-05-09T22:40:38.574Z,22.48
2024-05-09T22:43:13.676Z,22.33
2024-05-09T22:45:40.954Z,22.70
2024-05-09T22:48:08.720Z,21.10
2024-05-09T22:50:35.828Z,21.92
2024-05-09T22:53:02.687Z,20.20
2024-05-09T22:57:56.731Z,21.88
2024-05-09T23:05:19.951Z,18.90
2024-05-09T23:07:46.761Z,21.38
2024-05-09T23:10:20.803Z,20.08
2024-05-09T23:12:51.702Z,20.88
2024-05-09T23:15:18.474Z,20.25
2024-05-09T23:17:45.284Z,20.25
2024-05-09T23:20:14.785Z,19.25
2024-05-09T23:25:08.387Z,20.10
2024-05-09T23:27:35.553Z,19.08
2024-05-09T23:30:02.647Z,20.80
2024-05-09T23:32:30.152Z,19.50
2024-05-09T23:34:56.956Z,21.33
2024-05-09T23:37:23.791Z,20.23
2024-05-09T23:39:50.591Z,19.23
2024-05-09T23:42:17.300Z,22.02
2024-05-09T23:44:44.068Z,21.10
2024-05-09T23:47:11.136Z,21.13
2024-05-09T23:49:38.029Z,21.10
2024-05-09T23:52:05.556Z,20.70
2024-05-09T23:54:32.410Z,21.75
2024-05-09T23:56:59.116Z,22.67
2024-05-09T23:59:25.902Z,22.65
